Time;durP1;ratioP1;P1;durP2;ratioP2;P2;SDS_P1;SDS_P2;PMS_P1;PMS_P2;Temp;Humidity;BMP_temperature;BMP_pressure;BME280_temperature;BME280_humidity;BME280_pressure;Samples;Min_cycle;Max_cycle;Signal;HPM_P1;HPM_P2
2023/08/27 00:00:14;;;;;;;3.07;1.57;;;;;;;-148.15;100.00;61821.78;4979475;28;20035;-91
2023/08/27 00:02:40;;;;;;;2.07;1.27;;;;;;;-148.15;100.00;61821.78;4993356;28;20289;-91
2023/08/27 00:05:07;;;;;;;1.70;1.42;;;;;;;-148.15;100.00;61821.78;4988270;28;20039;-90
2023/08/27 00:07:35;;;;;;;2.92;1.50;;;;;;;-148.15;100.00;61821.78;4983643;28;20109;-90
2023/08/27 00:10:01;;;;;;;2.08;1.30;;;;;;;-148.15;100.00;61821.78;4982087;28;20038;-89
2023/08/27 00:12:27;;;;;;;2.10;1.25;;;;;;;-148.15;100.00;61821.78;4985812;28;20077;-90
2023/08/27 00:14:53;;;;;;;4.10;1.27;;;;;;;-148.15;100.00;61821.78;4986765;28;20030;-90
2023/08/27 00:17:19;;;;;;;1.95;1.27;;;;;;;-148.15;100.00;61821.78;4987509;28;20050;-89
2023/08/27 00:19:44;;;;;;;3.23;1.50;;;;;;;-148.15;100.00;61821.78;4985336;28;20522;-88
2023/08/27 00:22:10;;;;;;;3.57;1.40;;;;;;;-148.15;100.00;61821.78;4980718;28;20326;-89
2023/08/27 00:24:35;;;;;;;2.47;1.47;;;;;;;-148.15;100.00;61821.78;4979811;28;20062;-88
2023/08/27 00:27:00;;;;;;;1.90;1.30;;;;;;;-148.15;100.00;61821.78;4980068;28;20071;-88
2023/08/27 00:29:26;;;;;;;1.67;1.20;;;;;;;-148.15;100.00;61821.78;4987176;28;20129;-89
2023/08/27 00:31:51;;;;;;;1.77;1.30;;;;;;;-148.15;100.00;61821.78;4975174;28;20148;-89
2023/08/27 00:34:16;;;;;;;3.08;1.20;;;;;;;-148.15;100.00;61821.78;4983075;28;20030;-89
2023/08/27 00:36:42;;;;;;;2.63;1.33;;;;;;;-148.15;100.00;61821.78;4981483;28;20053;-89
2023/08/27 00:39:07;;;;;;;2.37;1.13;;;;;;;-148.15;100.00;61821.78;4979641;28;20085;-89
2023/08/27 00:41:32;;;;;;;2.10;1.13;;;;;;;-148.15;100.00;61821.78;4980010;28;20146;-88
2023/08/27 00:43:58;;;;;;;2.27;1.30;;;;;;;-148.15;100.00;61821.78;4982176;28;20094;-88
2023/08/27 00:46:23;;;;;;;1.53;1.17;;;;;;;-148.15;100.00;61821.78;4982816;28;20583;-88
2023/08/27 00:48:49;;;;;;;1.30;1.20;;;;;;;-148.15;100.00;61821.78;4963786;28;20030;-88
2023/08/27 00:51:15;;;;;;;3.25;1.40;;;;;;;-148.15;100.00;61821.78;4983681;28;20026;-89
2023/08/27 00:53:40;;;;;;;1.43;1.27;;;;;;;-148.15;100.00;61821.78;4982283;28;20030;-89
2023/08/27 00:56:06;;;;;;;2.97;1.33;;;;;;;-148.15;100.00;61821.78;4983922;28;20038;-89
2023/08/27 00:58:32;;;;;;;1.88;1.30;;;;;;;-148.15;100.00;61821.78;4979479;28;20031;-89
2023/08/27 01:00:58;;;;;;;2.70;1.25;;;;;;;-148.15;100.00;61821.78;4981164;28;20023;-89
2023/08/27 01:03:24;;;;;;;2.10;1.47;;;;;;;-148.15;100.00;61821.78;4982774;28;20026;-89
2023/08/27 01:05:51;;;;;;;3.45;1.25;;;;;;;-148.15;100.00;61821.78;4982839;28;20418;-89
2023/08/27 01:08:56;;;;;;;2.55;1.30;;;;;;;-148.15;100.00;61821.78;4966134;28;20018;-88
2023/08/27 01:11:51;;;;;;;6.57;1.30;;;;;;;-148.15;100.00;61821.78;4960126;28;20453;-89
2023/08/27 01:14:17;;;;;;;1.77;1.17;;;;;;;-148.15;100.00;61821.78;4979143;28;20063;-89
2023/08/27 01:16:44;;;;;;;5.10;1.65;;;;;;;-148.15;100.00;61821.78;4990010;28;20034;-89
2023/08/27 01:19:15;;;;;;;2.03;1.30;;;;;;;-148.15;100.00;61821.78;4988852;28;20030;-89
2023/08/27 01:21:44;;;;;;;3.73;1.47;;;;;;;-148.15;100.00;61821.78;4983879;28;20035;-89
2023/08/27 01:24:10;;;;;;;1.60;1.33;;;;;;;-148.15;100.00;61821.78;5000109;28;20285;-89
2023/08/27 01:26:41;;;;;;;2.78;1.30;;;;;;;-148.15;100.00;61821.78;4985454;28;20496;-89
2023/08/27 01:29:24;;;;;;;3.22;1.40;;;;;;;-148.15;100.00;61821.78;4980469;28;20034;-89
2023/08/27 01:32:04;;;;;;;2.17;1.30;;;;;;;-148.15;100.00;61821.78;4979856;28;20034;-89
2023/08/27 01:34:30;;;;;;;2.90;1.45;;;;;;;-148.15;100.00;61821.78;4982585;28;20030;-89
2023/08/27 01:36:57;;;;;;;2.75;1.30;;;;;;;-148.15;100.00;61821.78;4981645;28;20053;-89
2023/08/27 01:39:22;;;;;;;2.45;1.30;;;;;;;-148.15;100.00;61821.78;4979217;28;20027;-89
2023/08/27 01:41:48;;;;;;;2.53;1.40;;;;;;;-148.15;100.00;61821.78;4979086;28;20037;-89
2023/08/27 01:44:13;;;;;;;2.63;1.87;;;;;;;-148.15;100.00;61821.78;4979917;28;20046;-90
2023/08/27 01:46:38;;;;;;;4.60;3.08;;;;;;;-148.15;100.00;61821.78;4984980;28;20117;-88
2023/08/27 01:49:04;;;;;;;7.17;2.90;;;;;;;-148.15;100.00;61821.78;4981693;28;20490;-89
2023/08/27 01:51:29;;;;;;;3.63;2.90;;;;;;;-148.15;100.00;61821.78;4979698;28;20571;-89
2023/08/27 01:53:54;;;;;;;4.07;3.40;;;;;;;-148.15;100.00;61821.78;4979094;28;20430;-89
2023/08/27 01:56:20;;;;;;;3.60;3.27;;;;;;;-148.15;100.00;61821.78;4979662;28;20042;-90
2023/08/27 01:58:45;;;;;;;4.47;3.10;;;;;;;-148.15;100.00;61821.78;4988674;28;20285;-91
2023/08/27 02:01:10;;;;;;;4.27;3.60;;;;;;;-148.15;100.00;61821.78;4985237;28;20454;-90
2023/08/27 02:03:36;;;;;;;4.67;4.27;;;;;;;-148.15;100.00;61821.78;4982273;28;20494;-89
2023/08/27 02:06:01;;;;;;;6.27;5.13;;;;;;;-148.15;100.00;61821.78;4987935;28;20046;-89
2023/08/27 02:08:26;;;;;;;10.77;9.63;;;;;;;-148.15;100.00;61821.78;4981592;28;20015;-89
2023/08/27 02:10:52;;;;;;;13.48;12.00;;;;;;;-148.15;100.00;61821.78;4983754;28;20432;-90
2023/08/27 02:13:17;;;;;;;11.73;10.03;;;;;;;-148.15;100.00;61821.78;4983471;28;20035;-89
2023/08/27 02:15:43;;;;;;;11.40;10.20;;;;;;;-148.15;100.00;61821.78;4983498;28;20501;-89
2023/08/27 02:18:09;;;;;;;11.30;10.15;;;;;;;-148.15;100.00;61821.78;4984217;28;20037;-89
2023/08/27 02:20:34;;;;;;;8.27;7.47;;;;;;;-148.15;100.00;61821.78;4990731;28;20025;-90
2023/08/27 02:22:59;;;;;;;7.03;6.33;;;;;;;-148.15;100.00;61821.78;4984304;28;20053;-90
2023/08/27 02:25:24;;;;;;;5.45;4.95;;;;;;;-148.15;100.00;61821.78;4994988;28;20039;-89
2023/08/27 02:27:50;;;;;;;7.67;4.90;;;;;;;-148.15;100.00;61821.78;4994834;28;20015;-90
2023/08/27 02:30:15;;;;;;;4.90;3.70;;;;;;;-148.15;100.00;61821.78;4995340;28;20061;-89
2023/08/27 02:32:41;;;;;;;8.10;2.97;;;;;;;-148.15;100.00;61821.78;4973992;28;20022;-90
2023/08/27 02:35:07;;;;;;;12.68;3.50;;;;;;;-148.15;100.00;61821.78;4992407;28;20066;-90
2023/08/27 02:37:32;;;;;;;6.53;3.07;;;;;;;-148.15;100.00;61821.78;4994736;28;20023;-90
2023/08/27 02:39:57;;;;;;;7.97;3.00;;;;;;;-148.15;100.00;61821.78;4994204;28;20030;-89
2023/08/27 02:50:08;;;;;;;7.43;3.50;;;;;;;-148.15;100.00;61821.78;4110308;23;20310;-89
2023/08/27 02:52:34;;;;;;;4.35;2.55;;;;;;;-148.15;100.00;61821.78;4981901;28;20039;-89
2023/08/27 02:54:59;;;;;;;5.07;3.73;;;;;;;-148.15;100.00;61821.78;4982529;28;20034;-89
2023/08/27 02:57:24;;;;;;;6.43;3.80;;;;;;;-148.15;100.00;61821.78;4983114;28;20030;-89
2023/08/27 02:59:50;;;;;;;5.07;3.80;;;;;;;-148.15;100.00;61821.78;4985943;28;20137;-89
2023/08/27 03:02:15;;;;;;;5.40;4.13;;;;;;;-148.15;100.00;61821.78;4967101;28;20129;-88
2023/08/27 03:04:40;;;;;;;6.27;3.97;;;;;;;-148.15;100.00;61821.78;4985468;28;20022;-88
2023/08/27 03:07:06;;;;;;;5.43;3.43;;;;;;;-148.15;100.00;61821.78;4990232;28;20022;-87
2023/08/27 03:09:31;;;;;;;4.00;3.37;;;;;;;-148.15;100.00;61821.78;4998159;28;20061;-88
2023/08/27 03:11:56;;;;;;;4.77;3.07;;;;;;;-148.15;100.00;61821.78;4997367;28;20061;-88
2023/08/27 03:14:21;;;;;;;5.87;3.20;;;;;;;-148.15;100.00;61821.78;4998626;28;20029;-88
2023/08/27 03:16:47;;;;;;;6.87;3.10;;;;;;;-148.15;100.00;61821.78;4995734;28;20301;-88
2023/08/27 03:19:12;;;;;;;5.77;2.87;;;;;;;-148.15;100.00;61821.78;4987555;28;20030;-88
2023/08/27 03:21:38;;;;;;;3.13;2.53;;;;;;;-148.15;100.00;61821.78;5002956;28;20023;-89
2023/08/27 03:24:03;;;;;;;2.90;2.42;;;;;;;-148.15;100.00;61821.78;4987596;28;20030;-88
2023/08/27 03:26:29;;;;;;;6.37;2.50;;;;;;;-148.15;100.00;61821.78;4984028;28;20041;-88
2023/08/27 03:28:54;;;;;;;3.40;2.77;;;;;;;-148.15;100.00;61821.78;4984770;28;20054;-88
2023/08/27 03:31:19;;;;;;;6.90;2.90;;;;;;;-148.15;100.00;61821.78;4984451;28;20065;-88
2023/08/27 03:33:44;;;;;;;4.90;2.70;;;;;;;-148.15;100.00;61821.78;4989209;28;20038;-88
2023/08/27 03:36:12;;;;;;;5.93;2.60;;;;;;;-148.15;100.00;61821.78;4973366;28;20042;-88
2023/08/27 03:38:37;;;;;;;5.53;2.83;;;;;;;-148.15;100.00;61821.78;4983022;28;20042;-88
2023/08/27 03:41:03;;;;;;;5.77;2.60;;;;;;;-148.15;100.00;61821.78;4980057;28;20027;-90
2023/08/27 03:43:28;;;;;;;9.80;2.90;;;;;;;-148.15;100.00;61821.78;4982690;28;20292;-89
2023/08/27 03:45:54;;;;;;;7.20;2.73;;;;;;;-148.15;100.00;61821.78;4973734;28;20072;-89
2023/08/27 03:48:21;;;;;;;5.53;2.83;;;;;;;-148.15;100.00;61821.78;4957777;28;20069;-89
2023/08/27 03:50:46;;;;;;;3.17;2.60;;;;;;;-148.15;100.00;61821.78;4983385;28;20031;-89
2023/08/27 03:53:11;;;;;;;4.00;3.25;;;;;;;-148.15;100.00;61821.78;4985135;28;20544;-89
2023/08/27 03:55:41;;;;;;;5.33;3.40;;;;;;;-148.15;100.00;61821.78;4982788;28;20061;-88
2023/08/27 03:58:07;;;;;;;6.55;3.67;;;;;;;-148.15;100.00;61821.78;4979031;28;20436;-88
2023/08/27 04:00:33;;;;;;;10.75;3.92;;;;;;;-148.15;100.00;61821.78;4983832;28;20061;-89
2023/08/27 04:02:59;;;;;;;7.70;3.63;;;;;;;-148.15;100.00;61821.78;4977509;28;20030;-89
2023/08/27 04:05:24;;;;;;;7.17;3.77;;;;;;;-148.15;100.00;61821.78;4985602;28;20751;-89
2023/08/27 04:07:50;;;;;;;5.87;3.40;;;;;;;-148.15;100.00;61821.78;4981048;28;20030;-88
2023/08/27 04:10:18;;;;;;;5.22;3.53;;;;;;;-148.15;100.00;61821.78;4980741;28;20034;-89
2023/08/27 04:12:43;;;;;;;5.10;3.43;;;;;;;-148.15;100.00;61821.78;4981616;28;20114;-89
2023/08/27 04:15:09;;;;;;;5.73;3.53;;;;;;;-148.15;100.00;61821.78;4984105;28;20729;-88
2023/08/27 04:17:35;;;;;;;5.00;3.95;;;;;;;-148.15;100.00;61821.78;4983284;28;20034;-87
2023/08/27 04:20:00;;;;;;;8.97;4.07;;;;;;;-148.15;100.00;61821.78;4980522;28;20553;-88
2023/08/27 04:22:26;;;;;;;5.07;3.93;;;;;;;-148.15;100.00;61821.78;4980744;28;20045;-88
2023/08/27 04:24:51;;;;;;;4.97;4.07;;;;;;;-148.15;100.00;61821.78;4981604;28;20661;-88
2023/08/27 04:27:16;;;;;;;9.57;4.93;;;;;;;-148.15;100.00;61821.78;4983784;28;20026;-88
2023/08/27 04:29:43;;;;;;;6.00;4.70;;;;;;;-148.15;100.00;61821.78;4965441;28;20489;-88
2023/08/27 04:32:08;;;;;;;7.22;4.60;;;;;;;-148.15;100.00;61821.78;4980371;28;20033;-89
2023/08/27 04:34:33;;;;;;;6.73;4.83;;;;;;;-148.15;100.00;61821.78;4979690;28;20272;-88
2023/08/27 04:37:00;;;;;;;6.90;4.50;;;;;;;-148.15;100.00;61821.78;4982604;28;20062;-88
2023/08/27 04:39:26;;;;;;;5.57;4.22;;;;;;;-148.15;100.00;61821.78;4983192;28;20030;-88
2023/08/27 04:41:52;;;;;;;8.43;6.72;;;;;;;-148.15;100.00;61821.78;4981979;28;20080;-88
2023/08/27 04:44:17;;;;;;;13.00;8.53;;;;;;;-148.15;100.00;61821.78;4980679;28;20027;-88
2023/08/27 04:46:43;;;;;;;12.70;8.60;;;;;;;-148.15;100.00;61821.78;4979714;28;20030;-88
2023/08/27 04:49:08;;;;;;;8.13;5.33;;;;;;;-148.15;100.00;61821.78;4979699;28;20290;-88
2023/08/27 04:51:34;;;;;;;7.90;4.37;;;;;;;-148.15;100.00;61821.78;4980599;28;20038;-88
2023/08/27 04:54:01;;;;;;;7.47;3.83;;;;;;;-148.15;100.00;61821.78;4980050;28;20038;-89
2023/08/27 04:56:27;;;;;;;6.72;3.35;;;;;;;-148.15;100.00;61821.78;4979399;28;20081;-88
2023/08/27 04:58:53;;;;;;;4.80;3.33;;;;;;;-148.15;100.00;61821.78;4979452;28;20030;-89
2023/08/27 05:01:18;;;;;;;6.63;2.80;;;;;;;-148.15;100.00;61821.78;4980283;28;20031;-88
2023/08/27 05:03:43;;;;;;;4.85;2.75;;;;;;;-148.15;100.00;61821.78;4979507;28;20027;-89
2023/08/27 05:06:09;;;;;;;7.67;3.00;;;;;;;-148.15;100.00;61821.78;4981615;28;20035;-88
2023/08/27 05:08:34;;;;;;;3.90;2.53;;;;;;;-148.15;100.00;61821.78;4984623;28;20031;-88
2023/08/27 05:11:00;;;;;;;5.77;3.00;;;;;;;-148.15;100.00;61821.78;4973169;28;20118;-89
2023/08/27 05:13:26;;;;;;;4.63;2.90;;;;;;;-148.15;100.00;61821.78;4986487;28;20482;-90
2023/08/27 05:15:51;;;;;;;6.57;3.40;;;;;;;-148.15;100.00;61821.78;4962185;28;20038;-90
2023/08/27 05:18:17;;;;;;;5.40;3.20;;;;;;;-148.15;100.00;61821.78;4984215;28;20286;-90
2023/08/27 05:20:44;;;;;;;5.23;3.20;;;;;;;-148.15;100.00;61821.78;4982001;28;20026;-90
2023/08/27 05:23:09;;;;;;;4.97;2.85;;;;;;;-148.15;100.00;61821.78;4975651;28;20023;-90
2023/08/27 05:25:35;;;;;;;5.70;3.60;;;;;;;-148.15;100.00;61821.78;4989230;28;20526;-89
2023/08/27 05:28:01;;;;;;;5.65;3.42;;;;;;;-148.15;100.00;61821.78;4983585;28;20042;-90
2023/08/27 05:30:26;;;;;;;6.60;3.10;;;;;;;-148.15;100.00;61821.78;4983161;28;20466;-91
2023/08/27 05:32:53;;;;;;;6.82;3.72;;;;;;;-148.15;100.00;61821.78;4982502;28;20027;-90
2023/08/27 05:35:18;;;;;;;6.97;3.60;;;;;;;-148.15;100.00;61821.78;4981909;28;20044;-90
2023/08/27 05:37:44;;;;;;;5.47;3.57;;;;;;;-148.15;100.00;61821.78;4979834;28;20479;-90
2023/08/27 05:40:09;;;;;;;6.82;3.20;;;;;;;-148.15;100.00;61821.78;4980877;28;20583;-91
2023/08/27 05:42:35;;;;;;;8.60;3.40;;;;;;;-148.15;100.00;61821.78;4981399;28;20124;-90
2023/08/27 05:45:01;;;;;;;9.18;3.65;;;;;;;-148.15;100.00;61821.78;4983707;28;20030;-91
2023/08/27 05:47:27;;;;;;;6.93;3.87;;;;;;;-148.15;100.00;61821.78;4982647;28;20041;-91
2023/08/27 05:49:52;;;;;;;7.32;3.72;;;;;;;-148.15;100.00;61821.78;4983378;28;20025;-91
2023/08/27 05:52:18;;;;;;;5.37;3.23;;;;;;;-148.15;100.00;61821.78;4982989;28;20496;-91
2023/08/27 05:54:43;;;;;;;7.25;3.85;;;;;;;-148.15;100.00;61821.78;4982213;28;20030;-91
2023/08/27 05:57:09;;;;;;;5.17;3.63;;;;;;;-148.15;100.00;61821.78;4982757;28;20038;-91
2023/08/27 05:59:34;;;;;;;5.63;3.60;;;;;;;-148.15;100.00;61821.78;4982371;28;20038;-91
2023/08/27 06:01:59;;;;;;;5.33;3.33;;;;;;;-148.15;100.00;61821.78;4979601;28;20057;-91
2023/08/27 06:04:25;;;;;;;8.10;3.97;;;;;;;-148.15;100.00;61821.78;4979897;28;20050;-91
2023/08/27 06:06:50;;;;;;;5.37;4.10;;;;;;;-148.15;100.00;61821.78;4980613;28;20023;-91
2023/08/27 06:09:16;;;;;;;5.87;3.87;;;;;;;-148.15;100.00;61821.78;4982795;28;20030;-91
2023/08/27 06:11:41;;;;;;;5.90;4.13;;;;;;;-148.15;100.00;61821.78;4974827;28;20387;-90
2023/08/27 06:14:07;;;;;;;6.53;4.97;;;;;;;-148.15;100.00;61821.78;4963300;28;20166;-91
2023/08/27 06:16:33;;;;;;;9.60;5.53;;;;;;;-148.15;100.00;61821.78;4978920;28;20113;-91
2023/08/27 06:18:59;;;;;;;11.10;7.20;;;;;;;-148.15;100.00;61821.78;4963415;28;20030;-91
2023/08/27 06:21:24;;;;;;;11.05;7.22;;;;;;;-148.15;100.00;61821.78;4982922;28;20036;-90
2023/08/27 06:23:49;;;;;;;10.37;7.37;;;;;;;-148.15;100.00;61821.78;4982825;28;20580;-92
2023/08/27 06:26:15;;;;;;;9.37;7.47;;;;;;;-148.15;100.00;61821.78;4980123;28;20153;-91
2023/08/27 06:28:40;;;;;;;11.07;6.93;;;;;;;-148.15;100.00;61821.78;4979800;28;20507;-92
2023/08/27 06:31:05;;;;;;;7.00;6.28;;;;;;;-148.15;100.00;61821.78;4971919;28;20725;-90
2023/08/27 06:33:31;;;;;;;8.97;6.37;;;;;;;-148.15;100.00;61821.78;4979981;28;20054;-91
2023/08/27 06:35:56;;;;;;;7.80;5.93;;;;;;;-148.15;100.00;61821.78;4961318;28;20093;-92
2023/08/27 06:38:22;;;;;;;8.43;5.97;;;;;;;-148.15;100.00;61821.78;4989932;28;20040;-90
2023/08/27 06:40:47;;;;;;;8.82;4.53;;;;;;;-148.15;100.00;61821.78;4992595;28;20146;-91
2023/08/27 06:43:14;;;;;;;5.87;3.90;;;;;;;-148.15;100.00;61821.78;4964137;28;20038;-91
2023/08/27 06:45:39;;;;;;;6.57;4.10;;;;;;;-148.15;100.00;61821.78;4969755;28;20026;-91
2023/08/27 06:48:05;;;;;;;8.70;4.00;;;;;;;-148.15;100.00;61821.78;4987244;28;20164;-91
2023/08/27 06:50:30;;;;;;;6.57;4.38;;;;;;;-148.15;100.00;61821.78;4963655;28;20045;-91
2023/08/27 06:52:56;;;;;;;11.70;4.40;;;;;;;-148.15;100.00;61821.78;4979378;28;20026;-92
2023/08/27 06:55:21;;;;;;;5.27;4.53;;;;;;;-148.15;100.00;61821.78;4981607;28;20038;-91
2023/08/27 06:57:46;;;;;;;8.38;5.13;;;;;;;-148.15;100.00;61821.78;4982980;28;20088;-92
2023/08/27 07:00:12;;;;;;;7.90;4.80;;;;;;;-148.15;100.00;61821.78;4996189;28;20093;-91
2023/08/27 07:02:38;;;;;;;8.68;5.30;;;;;;;-148.15;100.00;61821.78;4990802;28;20035;-91
2023/08/27 07:05:08;;;;;;;8.60;5.43;;;;;;;-148.15;100.00;61821.78;4986309;28;20030;-91
2023/08/27 07:07:38;;;;;;;6.57;5.15;;;;;;;-148.15;100.00;61821.78;4986123;28;20391;-91
2023/08/27 07:10:08;;;;;;;8.10;4.70;;;;;;;-148.15;100.00;61821.78;4993765;28;20113;-92
2023/08/27 07:12:35;;;;;;;11.80;4.45;;;;;;;-148.15;100.00;61821.78;5247370;23;20009;-90
2023/08/27 07:15:01;;;;;;;8.57;4.10;;;;;;;-148.15;100.00;61821.78;5003380;28;20041;-91
2023/08/27 07:17:26;;;;;;;8.63;4.27;;;;;;;-148.15;100.00;61821.78;5005370;28;20044;-91
2023/08/27 07:19:52;;;;;;;7.13;4.10;;;;;;;-148.15;100.00;61821.78;5004324;28;20848;-91
2023/08/27 07:22:17;;;;;;;8.10;4.10;;;;;;;-148.15;100.00;61821.78;5002061;28;20029;-91
2023/08/27 07:24:43;;;;;;;8.00;4.30;;;;;;;-148.15;100.00;61821.78;5001392;28;20068;-90
2023/08/27 07:27:09;;;;;;;6.50;3.88;;;;;;;-148.15;100.00;61821.78;5009698;28;20026;-91
2023/08/27 07:29:35;;;;;;;6.78;3.38;;;;;;;-148.15;100.00;61821.78;5002240;28;20596;-91
2023/08/27 07:34:36;;;;;;;8.00;4.00;;;;;;;-148.15;100.00;61821.78;5205470;23;20038;-91
2023/08/27 07:37:01;;;;;;;10.17;3.67;;;;;;;-148.15;100.00;61821.78;4999798;28;20332;-91
2023/08/27 07:39:27;;;;;;;7.03;4.10;;;;;;;-148.15;100.00;61821.78;4987684;28;20038;-90
2023/08/27 07:41:54;;;;;;;11.77;3.88;;;;;;;-148.15;100.00;61821.78;4994860;28;20030;-91
2023/08/27 07:44:19;;;;;;;9.48;4.22;;;;;;;-148.15;100.00;61821.78;4985662;28;20146;-92
2023/08/27 07:46:45;;;;;;;8.77;3.77;;;;;;;-148.15;100.00;61821.78;4987340;28;20121;-90
2023/08/27 07:49:10;;;;;;;8.50;3.83;;;;;;;-148.15;100.00;61821.78;4985556;28;20037;-91
2023/08/27 07:51:36;;;;;;;9.90;4.13;;;;;;;-148.15;100.00;61821.78;4959697;28;20101;-91
2023/08/27 07:54:02;;;;;;;9.53;3.93;;;;;;;-148.15;100.00;61821.78;4989970;28;20081;-91
2023/08/27 07:56:27;;;;;;;10.40;4.43;;;;;;;-148.15;100.00;61821.78;4984753;28;20122;-90
2023/08/27 07:58:52;;;;;;;8.93;4.10;;;;;;;-148.15;100.00;61821.78;4984985;28;20410;-91
2023/08/27 08:01:18;;;;;;;10.70;4.10;;;;;;;-148.15;100.00;61821.78;4994463;28;20031;-91
2023/08/27 08:03:43;;;;;;;5.33;3.27;;;;;;;-148.15;100.00;61821.78;4983641;28;20167;-91
2023/08/27 08:06:08;;;;;;;5.60;4.10;;;;;;;-148.15;100.00;61821.78;4988597;28;20015;-91
2023/08/27 08:08:35;;;;;;;8.23;4.67;;;;;;;-148.15;100.00;61821.78;4989575;28;20304;-90
2023/08/27 08:11:01;;;;;;;8.85;4.20;;;;;;;-148.15;100.00;61821.78;4974367;28;20531;-90
2023/08/27 08:13:26;;;;;;;6.40;4.00;;;;;;;-148.15;100.00;61821.78;4988844;28;20140;-90
2023/08/27 08:15:52;;;;;;;6.07;3.90;;;;;;;-148.15;100.00;61821.78;4982477;28;20461;-91
2023/08/27 08:18:18;;;;;;;7.60;4.10;;;;;;;-148.15;100.00;61821.78;4982176;28;20483;-90
2023/08/27 08:20:43;;;;;;;6.60;3.60;;;;;;;-148.15;100.00;61821.78;4982096;28;20341;-90
2023/08/27 08:23:09;;;;;;;7.33;4.43;;;;;;;-148.15;100.00;61821.78;4984534;28;20022;-90
2023/08/27 08:25:37;;;;;;;5.90;3.15;;;;;;;-148.15;100.00;61821.78;4967760;28;20105;-91
2023/08/27 08:28:05;;;;;;;10.10;3.97;;;;;;;-148.15;100.00;61821.78;4984878;28;20078;-90
2023/08/27 08:30:31;;;;;;;8.57;3.70;;;;;;;-148.15;100.00;61821.78;4985132;28;20559;-90
2023/08/27 08:32:56;;;;;;;6.30;3.63;;;;;;;-148.15;100.00;61821.78;4983537;28;20034;-90
2023/08/27 08:35:21;;;;;;;7.37;3.60;;;;;;;-148.15;100.00;61821.78;4984879;28;20359;-90
2023/08/27 08:37:47;;;;;;;7.83;3.40;;;;;;;-148.15;100.00;61821.78;4983752;28;20097;-90
2023/08/27 08:40:14;;;;;;;9.20;3.60;;;;;;;-148.15;100.00;61821.78;4981816;28;20113;-91
2023/08/27 08:42:51;;;;;;;6.13;3.50;;;;;;;-148.15;100.00;61821.78;4981502;28;20027;-91
2023/08/27 08:45:26;;;;;;;8.75;3.58;;;;;;;-148.15;100.00;61821.78;4970089;28;20037;-90
2023/08/27 08:47:53;;;;;;;6.38;3.22;;;;;;;-148.15;100.00;61821.78;4983734;28;20093;-90
2023/08/27 08:50:20;;;;;;;6.20;2.90;;;;;;;-148.15;100.00;61821.78;4975191;28;20030;-91
2023/08/27 08:52:48;;;;;;;6.47;2.85;;;;;;;-148.15;100.00;61821.78;4981624;28;20011;-90
2023/08/27 08:55:15;;;;;;;5.50;3.10;;;;;;;-148.15;100.00;61821.78;4984064;28;20034;-90
2023/08/27 08:57:46;;;;;;;5.32;3.05;;;;;;;-148.15;100.00;61821.78;4984028;28;20030;-91
2023/08/27 09:00:12;;;;;;;5.93;2.70;;;;;;;-148.15;100.00;61821.78;4983514;28;20043;-92
2023/08/27 09:02:38;;;;;;;6.22;2.80;;;;;;;-148.15;100.00;61821.78;4969570;28;20030;-91
2023/08/27 09:05:05;;;;;;;4.15;2.40;;;;;;;-148.15;100.00;61821.78;4967586;28;20044;-91
2023/08/27 09:07:36;;;;;;;4.77;2.27;;;;;;;-148.15;100.00;61821.78;4981422;28;20202;-91
2023/08/27 09:10:03;;;;;;;6.05;2.05;;;;;;;-148.15;100.00;61821.78;4984164;28;20590;-89
2023/08/27 09:12:30;;;;;;;9.52;2.28;;;;;;;-148.15;100.00;61821.78;4975897;28;20379;-91
2023/08/27 09:14:55;;;;;;;7.22;2.05;;;;;;;-148.15;100.00;61821.78;4974328;28;20050;-90
2023/08/27 09:17:21;;;;;;;7.43;2.00;;;;;;;-148.15;100.00;61821.78;4981769;28;20578;-90
2023/08/27 09:19:47;;;;;;;4.68;2.20;;;;;;;-148.15;100.00;61821.78;4984236;28;20053;-89
2023/08/27 09:22:15;;;;;;;3.88;2.10;;;;;;;-148.15;100.00;61821.78;5002109;28;20027;-91
2023/08/27 09:24:41;;;;;;;5.17;2.27;;;;;;;-148.15;100.00;61821.78;4988472;28;20027;-90
2023/08/27 09:27:06;;;;;;;4.57;1.98;;;;;;;-148.15;100.00;61821.78;4988844;28;20073;-91
2023/08/27 09:29:33;;;;;;;4.17;1.70;;;;;;;-148.15;100.00;61821.78;4995445;28;20045;-90
2023/08/27 09:31:59;;;;;;;3.05;1.58;;;;;;;-148.15;100.00;61821.78;4979347;28;20100;-90
2023/08/27 09:34:24;;;;;;;4.28;2.00;;;;;;;-148.15;100.00;61821.78;4975356;28;20038;-90
2023/08/27 09:36:50;;;;;;;2.20;1.60;;;;;;;-148.15;100.00;61821.78;4984260;28;20034;-90
2023/08/27 09:39:16;;;;;;;4.85;1.67;;;;;;;-148.15;100.00;61821.78;4986726;28;20038;-91
2023/08/27 09:41:44;;;;;;;6.13;1.60;;;;;;;-148.15;100.00;61821.78;4974503;28;20034;-92
2023/08/27 09:44:10;;;;;;;3.23;1.60;;;;;;;-148.15;100.00;61821.78;4981618;28;20038;-91
2023/08/27 09:46:36;;;;;;;5.03;1.70;;;;;;;-148.15;100.00;61821.78;4965459;28;20053;-90
2023/08/27 09:49:08;;;;;;;4.43;1.73;;;;;;;-148.15;100.00;61821.78;4984918;28;20026;-91
2023/08/27 09:51:40;;;;;;;5.50;1.83;;;;;;;-148.15;100.00;61821.78;4995443;28;20121;-91
2023/08/27 09:54:17;;;;;;;4.22;1.50;;;;;;;-148.15;100.00;61821.78;4991393;28;20027;-90
2023/08/27 09:56:50;;;;;;;5.20;1.90;;;;;;;-148.15;100.00;61821.78;4991959;28;20038;-90
2023/08/27 09:59:19;;;;;;;5.23;1.53;;;;;;;-148.15;100.00;61821.78;4985890;28;20046;-92
2023/08/27 10:01:49;;;;;;;3.50;1.60;;;;;;;-148.15;100.00;61821.78;4963322;28;20781;-91
2023/08/27 10:04:15;;;;;;;5.32;1.88;;;;;;;-148.15;100.00;61821.78;4987583;28;20502;-91
2023/08/27 10:06:40;;;;;;;7.07;1.85;;;;;;;-148.15;100.00;61821.78;4983217;28;20066;-91
2023/08/27 10:09:07;;;;;;;5.37;1.80;;;;;;;-148.15;100.00;61821.78;4984388;28;20054;-91
2023/08/27 10:11:36;;;;;;;5.13;1.65;;;;;;;-148.15;100.00;61821.78;4983465;28;20363;-92
2023/08/27 10:14:03;;;;;;;5.45;1.60;;;;;;;-148.15;100.00;61821.78;4980975;28;20039;-92
2023/08/27 10:16:30;;;;;;;5.07;1.42;;;;;;;-148.15;100.00;61821.78;4980972;28;20084;-91
2023/08/27 10:18:59;;;;;;;5.18;1.80;;;;;;;-148.15;100.00;61821.78;4972813;28;20030;-91
2023/08/27 10:21:24;;;;;;;5.35;1.88;;;;;;;-148.15;100.00;61821.78;4988073;28;20038;-90
2023/08/27 10:23:50;;;;;;;7.70;1.77;;;;;;;-148.15;100.00;61821.78;4983182;28;20041;-91
2023/08/27 10:26:15;;;;;;;6.53;1.63;;;;;;;-148.15;100.00;61821.78;4981923;28;20039;-91
2023/08/27 10:28:42;;;;;;;5.15;1.85;;;;;;;-148.15;100.00;61821.78;4963859;28;20129;-91
2023/08/27 10:31:08;;;;;;;5.57;1.60;;;;;;;-148.15;100.00;61821.78;4989431;28;20026;-91
2023/08/27 10:33:34;;;;;;;4.50;1.80;;;;;;;-148.15;100.00;61821.78;4977152;28;20030;-90
2023/08/27 10:36:11;;;;;;;8.07;1.70;;;;;;;-148.15;100.00;61821.78;4979174;28;20027;-92
2023/08/27 10:38:46;;;;;;;4.03;1.55;;;;;;;-148.15;100.00;61821.78;5004323;28;20023;-92
2023/08/27 10:41:16;;;;;;;5.72;1.65;;;;;;;-148.15;100.00;61821.78;4999961;28;20018;-92
2023/08/27 10:43:41;;;;;;;1.58;1.20;;;;;;;-148.15;100.00;61821.78;4988706;28;20089;-92
2023/08/27 10:46:18;;;;;;;3.43;1.07;;;;;;;-148.15;100.00;61821.78;4986093;28;20121;-90
2023/08/27 10:48:51;;;;;;;2.97;1.10;;;;;;;-148.15;100.00;61821.78;5003502;28;20034;-91
2023/08/27 10:51:18;;;;;;;2.30;1.30;;;;;;;-148.15;100.00;61821.78;4990313;28;20630;-91
2023/08/27 10:53:49;;;;;;;3.47;1.20;;;;;;;-148.15;100.00;61821.78;4985255;28;20022;-90
2023/08/27 10:56:26;;;;;;;3.88;1.05;;;;;;;-148.15;100.00;61821.78;4989389;28;20034;-91
2023/08/27 10:58:51;;;;;;;5.17;1.20;;;;;;;-148.15;100.00;61821.78;4983363;28;20059;-91
2023/08/27 11:01:18;;;;;;;3.70;1.50;;;;;;;-148.15;100.00;61821.78;4994886;28;20389;-90
2023/08/27 11:03:57;;;;;;;5.43;1.20;;;;;;;-148.15;100.00;61821.78;4988535;28;20046;-90
2023/08/27 11:06:49;;;;;;;4.33;1.50;;;;;;;-148.15;100.00;61821.78;4989385;28;20054;-91
2023/08/27 11:09:20;;;;;;;7.50;1.48;;;;;;;-148.15;100.00;61821.78;4954113;29;20098;-90
2023/08/27 11:11:49;;;;;;;4.32;1.38;;;;;;;-148.15;100.00;61821.78;4958275;28;20020;-91
2023/08/27 11:14:47;;;;;;;4.45;1.50;;;;;;;-148.15;100.00;61821.78;4996774;28;20027;-91
2023/08/27 11:17:25;;;;;;;2.05;1.35;;;;;;;-148.15;100.00;61821.78;5007811;28;20018;-91